createdAt,value
2017-12-06T00:00:51.632Z,6.90
2017-12-06T00:03:32.177Z,6.90
2017-12-06T00:06:15.326Z,6.90
2017-12-06T00:08:49.905Z,6.80
2017-12-06T00:11:23.837Z,6.80
2017-12-06T00:14:06.392Z,6.80
2017-12-06T00:16:43.782Z,6.90
2017-12-06T00:19:18.306Z,6.90
2017-12-06T00:21:51.951Z,6.90
2017-12-06T00:24:30.324Z,6.90
2017-12-06T00:27:09.201Z,6.90
2017-12-06T00:29:48.332Z,6.90
2017-12-06T00:32:26.835Z,6.80
2017-12-06T00:35:04.808Z,6.80
2017-12-06T00:37:42.568Z,6.90
2017-12-06T00:40:24.932Z,6.80
2017-12-06T00:43:04.728Z,6.80
2017-12-06T00:45:46.125Z,6.80
2017-12-06T00:48:25.982Z,6.80
2017-12-06T00:51:06.035Z,6.80
2017-12-06T00:53:40.042Z,6.80
2017-12-06T00:56:19.218Z,6.80
2017-12-06T00:58:58.626Z,6.80
2017-12-06T01:01:37.603Z,6.90
2017-12-06T01:04:16.108Z,6.90
2017-12-06T01:06:55.494Z,6.90
2017-12-06T01:09:34.013Z,6.80
2017-12-06T01:12:16.796Z,6.80
2017-12-06T01:14:56.705Z,6.80
2017-12-06T01:17:35.844Z,6.80
2017-12-06T01:20:15.736Z,6.80
2017-12-06T01:22:54.786Z,6.80
2017-12-06T01:25:35.040Z,6.80
2017-12-06T01:28:14.863Z,6.80
2017-12-06T01:30:55.954Z,6.40
2017-12-06T01:33:37.641Z,6.70
2017-12-06T01:36:16.720Z,6.70
2017-12-06T01:38:54.425Z,6.80
2017-12-06T01:41:35.861Z,6.70
2017-12-06T01:44:11.184Z,6.70
2017-12-06T01:46:51.555Z,6.70
2017-12-06T01:49:30.000Z,6.70
2017-12-06T01:52:10.078Z,6.80
2017-12-06T01:54:48.916Z,6.80
2017-12-06T01:57:28.248Z,6.80
2017-12-06T02:00:08.033Z,6.80
2017-12-06T02:02:46.754Z,6.80
2017-12-06T02:05:25.796Z,6.80
2017-12-06T02:08:04.073Z,6.80
2017-12-06T02:10:43.391Z,6.80
2017-12-06T02:13:22.332Z,6.80
2017-12-06T02:16:02.356Z,6.80
2017-12-06T02:18:42.948Z,6.80
2017-12-06T02:21:25.129Z,6.80
2017-12-06T02:24:04.547Z,6.80
2017-12-06T02:26:44.552Z,6.80
2017-12-06T02:29:23.560Z,6.80
2017-12-06T02:32:04.459Z,6.90
2017-12-06T02:34:46.304Z,6.90
2017-12-06T02:37:27.248Z,6.90
2017-12-06T02:40:14.794Z,6.90
2017-12-06T02:42:58.950Z,6.90
2017-12-06T02:45:39.298Z,7.00
2017-12-06T02:48:19.903Z,6.90
2017-12-06T02:50:54.573Z,6.90
2017-12-06T02:53:35.098Z,6.90
2017-12-06T02:56:14.075Z,6.90
2017-12-06T02:58:55.342Z,6.90
2017-12-06T03:01:34.146Z,6.90
2017-12-06T03:04:13.272Z,6.80
2017-12-06T03:06:52.111Z,6.90
2017-12-06T03:09:29.872Z,6.90
2017-12-06T03:12:07.688Z,6.80
2017-12-06T03:14:47.616Z,6.90
2017-12-06T03:17:27.151Z,6.90
2017-12-06T03:20:05.691Z,7.00
2017-12-06T03:22:43.657Z,6.90
2017-12-06T03:25:22.526Z,7.00
2017-12-06T03:28:01.365Z,7.00
2017-12-06T03:30:40.980Z,7.00
2017-12-06T03:33:13.785Z,7.00
2017-12-06T03:35:48.603Z,7.00
2017-12-06T03:38:29.046Z,7.00
2017-12-06T03:41:09.351Z,7.00
2017-12-06T03:43:50.520Z,7.00
2017-12-06T03:46:29.841Z,7.00
2017-12-06T03:49:08.497Z,7.00
2017-12-06T03:51:47.386Z,7.00
2017-12-06T03:54:27.018Z,7.10
2017-12-06T03:57:00.250Z,7.10
2017-12-06T03:59:39.026Z,7.10
2017-12-06T04:02:12.432Z,7.10
2017-12-06T04:04:51.589Z,7.10
2017-12-06T04:07:31.746Z,7.00
2017-12-06T04:10:09.244Z,7.00
2017-12-06T04:12:49.338Z,7.10
2017-12-06T04:15:22.585Z,7.10
2017-12-06T04:18:02.446Z,7.10
2017-12-06T04:20:43.070Z,7.10
2017-12-06T04:23:26.068Z,7.10
2017-12-06T04:26:04.743Z,7.20
2017-12-06T04:28:42.951Z,7.10
2017-12-06T04:31:16.510Z,7.10
2017-12-06T04:33:53.597Z,7.20
2017-12-06T04:36:33.180Z,7.20
2017-12-06T04:39:11.993Z,7.20
2017-12-06T04:41:47.542Z,7.20
2017-12-06T04:44:22.649Z,7.20
2017-12-06T04:47:01.920Z,7.20
2017-12-06T04:49:42.931Z,7.10
2017-12-06T04:52:21.394Z,7.10
2017-12-06T04:54:59.035Z,7.10
2017-12-06T04:57:39.925Z,7.10
2017-12-06T05:00:19.686Z,7.10
2017-12-06T05:02:57.196Z,7.10
2017-12-06T05:05:34.883Z,7.10
2017-12-06T05:08:14.922Z,7.10
2017-12-06T05:10:53.100Z,7.10
2017-12-06T05:13:32.288Z,7.20
2017-12-06T05:16:10.870Z,7.20
2017-12-06T05:18:52.128Z,7.20
2017-12-06T05:21:33.119Z,7.20
2017-12-06T05:24:12.755Z,7.20
2017-12-06T05:26:52.303Z,7.10
2017-12-06T05:29:31.424Z,7.20
2017-12-06T05:32:09.680Z,7.20
2017-12-06T05:34:52.336Z,7.10
2017-12-06T05:37:28.456Z,7.20
2017-12-06T05:40:01.987Z,7.10
2017-12-06T05:42:44.138Z,7.20
2017-12-06T05:45:19.392Z,7.10
2017-12-06T05:47:57.435Z,7.10
2017-12-06T05:50:31.686Z,7.10
2017-12-06T05:53:07.063Z,7.10
2017-12-06T05:55:40.899Z,7.10
2017-12-06T05:58:15.120Z,7.10
2017-12-06T06:00:54.410Z,7.10
2017-12-06T06:03:33.181Z,7.10
2017-12-06T06:06:12.838Z,7.10
2017-12-06T06:08:52.518Z,7.10
2017-12-06T06:11:27.600Z,7.10
2017-12-06T06:14:07.388Z,7.10
2017-12-06T06:16:46.689Z,7.10
2017-12-06T06:19:20.539Z,7.10
2017-12-06T06:21:55.344Z,7.20
2017-12-06T06:24:30.052Z,7.20
2017-12-06T06:27:09.091Z,7.20
2017-12-06T06:29:48.811Z,7.20
2017-12-06T06:32:28.002Z,7.30
2017-12-06T06:35:06.816Z,7.30
2017-12-06T06:37:45.191Z,7.30
2017-12-06T06:40:23.464Z,7.30
2017-12-06T06:43:03.817Z,7.40
2017-12-06T06:45:37.367Z,7.40
2017-12-06T06:48:12.505Z,7.30
2017-12-06T06:50:45.610Z,7.40
2017-12-06T06:53:24.639Z,7.40
2017-12-06T06:56:04.870Z,7.40
2017-12-06T06:58:39.954Z,7.40
2017-12-06T07:01:19.595Z,7.40
2017-12-06T07:03:59.364Z,7.50
2017-12-06T07:06:39.595Z,7.50
2017-12-06T07:09:19.248Z,7.50
2017-12-06T07:11:56.620Z,7.50
2017-12-06T07:14:34.077Z,7.50
2017-12-06T07:17:15.827Z,7.50
2017-12-06T07:19:52.517Z,7.50
2017-12-06T07:22:27.597Z,7.50
2017-12-06T07:25:05.438Z,7.40
2017-12-06T07:27:44.320Z,7.50
2017-12-06T07:30:23.230Z,7.50
2017-12-06T07:33:02.320Z,7.50
2017-12-06T07:35:45.260Z,7.50
2017-12-06T07:38:21.134Z,7.50
2017-12-06T07:41:00.852Z,7.50
2017-12-06T07:43:42.694Z,7.50
2017-12-06T07:46:21.310Z,7.50
2017-12-06T07:48:59.280Z,7.50
2017-12-06T07:51:40.992Z,7.60
2017-12-06T07:54:19.902Z,7.50
2017-12-06T07:56:58.849Z,7.60
2017-12-06T07:59:38.363Z,7.60
2017-12-06T08:02:12.824Z,7.50
2017-12-06T08:05:02.611Z,7.60
2017-12-06T08:07:43.011Z,7.60
2017-12-06T08:10:17.776Z,7.70
2017-12-06T08:12:58.795Z,7.70
2017-12-06T08:15:38.530Z,7.70
2017-12-06T08:18:11.102Z,7.70
2017-12-06T08:20:54.302Z,7.70
2017-12-06T08:23:29.838Z,7.70
2017-12-06T08:26:04.630Z,7.70
2017-12-06T08:28:38.730Z,7.80
2017-12-06T08:31:18.186Z,7.70
2017-12-06T08:33:58.079Z,7.80
2017-12-06T08:36:37.703Z,7.80
2017-12-06T08:39:16.950Z,7.80
2017-12-06T08:42:00.630Z,7.90
2017-12-06T08:44:40.383Z,7.90
2017-12-06T08:47:23.266Z,7.90
2017-12-06T08:50:06.239Z,7.90
2017-12-06T08:52:47.961Z,8.00
2017-12-06T08:55:21.966Z,8.00
2017-12-06T08:57:56.361Z,7.90
2017-12-06T09:00:29.990Z,8.00
2017-12-06T09:03:07.198Z,8.00
2017-12-06T09:05:40.782Z,8.00
2017-12-06T09:08:19.564Z,8.00
2017-12-06T09:10:59.083Z,8.00
2017-12-06T09:13:40.088Z,8.10
2017-12-06T09:16:18.821Z,8.10
2017-12-06T09:18:53.913Z,8.10
2017-12-06T09:21:37.764Z,8.10
2017-12-06T09:24:17.613Z,8.10
2017-12-06T09:26:56.470Z,8.10
2017-12-06T09:29:36.283Z,8.20
2017-12-06T09:32:10.898Z,8.20
2017-12-06T09:34:53.609Z,8.30
2017-12-06T09:37:35.987Z,8.30
2017-12-06T09:40:09.610Z,8.30
2017-12-06T09:42:48.668Z,8.30
2017-12-06T09:45:29.869Z,8.30
2017-12-06T09:48:09.699Z,8.30
2017-12-06T09:50:52.398Z,8.30
2017-12-06T09:53:33.231Z,8.30
2017-12-06T09:56:10.754Z,8.30
2017-12-06T09:58:51.874Z,8.80
2017-12-06T10:01:31.552Z,8.80
2017-12-06T10:04:06.134Z,9.00
2017-12-06T10:06:49.708Z,9.10
2017-12-06T10:09:28.420Z,9.10
2017-12-06T10:12:02.517Z,8.90
2017-12-06T10:14:43.651Z,8.80
2017-12-06T10:17:27.406Z,8.70
2017-12-06T10:20:06.910Z,8.70
2017-12-06T10:22:48.796Z,8.70
2017-12-06T10:25:25.829Z,8.60
2017-12-06T10:28:03.879Z,8.70
2017-12-06T10:30:37.738Z,8.70
2017-12-06T10:33:11.889Z,8.80
2017-12-06T10:35:53.199Z,8.80
2017-12-06T10:38:36.242Z,8.90
2017-12-06T10:41:09.446Z,8.90
2017-12-06T10:43:49.584Z,8.90
2017-12-06T10:46:29.824Z,8.90
2017-12-06T10:49:08.674Z,8.80
2017-12-06T10:51:47.692Z,8.80
2017-12-06T10:54:29.619Z,9.00
2017-12-06T10:57:07.942Z,9.00
2017-12-06T10:59:50.369Z,9.00
2017-12-06T11:02:29.389Z,9.20
2017-12-06T11:05:10.442Z,9.10
2017-12-06T11:07:51.108Z,9.20
2017-12-06T11:10:29.618Z,9.20
2017-12-06T11:13:07.849Z,9.20
2017-12-06T11:15:42.649Z,9.20
2017-12-06T11:18:22.066Z,9.10
2017-12-06T11:21:04.343Z,9.10
2017-12-06T11:23:37.415Z,9.10
2017-12-06T11:26:16.970Z,9.20
2017-12-06T11:28:58.268Z,9.30
2017-12-06T11:31:38.227Z,9.30
2017-12-06T11:34:20.022Z,9.30
2017-12-06T11:37:03.761Z,9.40
2017-12-06T11:39:43.280Z,9.40
2017-12-06T11:42:20.096Z,9.40
2017-12-06T11:44:54.562Z,9.40
2017-12-06T11:47:35.609Z,9.40
2017-12-06T11:50:15.088Z,9.40
2017-12-06T11:52:50.953Z,9.40
2017-12-06T11:55:34.266Z,9.40
2017-12-06T11:58:21.150Z,9.40
2017-12-06T12:00:56.388Z,9.40
2017-12-06T12:03:31.140Z,9.30
2017-12-06T12:06:11.517Z,9.40
2017-12-06T12:08:54.155Z,9.50
2017-12-06T12:11:32.187Z,9.40
2017-12-06T12:14:18.707Z,9.40
2017-12-06T12:16:52.647Z,9.30
2017-12-06T12:19:32.424Z,9.30
2017-12-06T12:22:14.505Z,9.30
2017-12-06T12:24:58.135Z,9.40
2017-12-06T12:27:40.644Z,9.30
2017-12-06T12:30:22.452Z,9.30
2017-12-06T12:33:04.454Z,9.30
2017-12-06T12:35:47.182Z,9.40
2017-12-06T12:38:22.765Z,9.40
2017-12-06T12:41:04.764Z,9.40
2017-12-06T12:43:45.562Z,9.30
2017-12-06T12:46:32.659Z,9.40
2017-12-06T12:49:19.507Z,9.30
2017-12-06T12:51:54.002Z,9.50
2017-12-06T12:54:34.068Z,9.40
2017-12-06T12:57:13.868Z,9.50
2017-12-06T12:59:47.398Z,9.40
2017-12-06T13:02:26.630Z,9.40
2017-12-06T13:05:13.165Z,9.50
2017-12-06T13:07:55.993Z,9.40
2017-12-06T13:10:36.509Z,9.30
2017-12-06T13:13:15.805Z,9.30
2017-12-06T13:15:55.429Z,9.30
2017-12-06T13:18:39.146Z,9.30
2017-12-06T13:21:18.387Z,9.20
2017-12-06T13:23:52.218Z,9.20
2017-12-06T13:26:31.358Z,9.20
2017-12-06T13:29:10.150Z,9.20
2017-12-06T13:31:49.923Z,9.10
2017-12-06T13:34:29.597Z,9.10
2017-12-06T13:37:12.317Z,9.10
2017-12-06T13:39:57.850Z,9.10
2017-12-06T13:42:38.132Z,9.10
2017-12-06T13:45:18.982Z,9.10
2017-12-06T13:47:59.460Z,9.10
2017-12-06T13:50:38.254Z,9.00
2017-12-06T13:53:18.774Z,9.00
2017-12-06T13:55:52.853Z,9.00
2017-12-06T13:58:30.164Z,9.00
2017-12-06T14:01:11.474Z,8.90
2017-12-06T14:03:45.333Z,8.90
2017-12-06T14:06:20.853Z,8.90
2017-12-06T14:08:55.162Z,8.90
2017-12-06T14:11:38.090Z,8.90
2017-12-06T14:14:12.626Z,8.90
2017-12-06T14:17:02.934Z,8.80
2017-12-06T14:19:42.096Z,8.80
2017-12-06T14:22:28.014Z,8.80
2017-12-06T14:25:12.477Z,8.80
2017-12-06T14:27:53.148Z,8.80
2017-12-06T14:30:34.060Z,8.80
2017-12-06T14:33:11.198Z,8.70
2017-12-06T14:35:51.591Z,8.70
2017-12-06T14:38:27.311Z,8.70
2017-12-06T14:41:08.841Z,8.70
2017-12-06T14:43:52.021Z,8.70
2017-12-06T14:46:26.877Z,8.70
2017-12-06T14:49:07.127Z,8.60
2017-12-06T14:51:46.743Z,8.60
2017-12-06T14:54:27.131Z,8.50
2017-12-06T14:57:07.552Z,8.50
2017-12-06T14:59:47.703Z,8.40
2017-12-06T15:02:32.848Z,8.40
2017-12-06T15:05:12.218Z,8.40
2017-12-06T15:08:05.221Z,8.40
2017-12-06T15:10:46.897Z,8.30
2017-12-06T15:13:33.042Z,8.30
2017-12-06T15:16:14.697Z,8.30
2017-12-06T15:18:55.543Z,8.30
2017-12-06T15:21:34.552Z,8.30
2017-12-06T15:24:18.918Z,8.30
2017-12-06T15:27:01.586Z,8.30
2017-12-06T15:29:37.747Z,8.30
2017-12-06T15:32:20.359Z,8.20
2017-12-06T15:34:59.423Z,8.20
2017-12-06T15:37:42.814Z,8.20
2017-12-06T15:40:28.125Z,8.20
2017-12-06T15:43:13.527Z,8.20
2017-12-06T15:45:52.891Z,8.20
2017-12-06T15:48:27.870Z,8.20
2017-12-06T15:51:14.289Z,8.20
2017-12-06T15:53:47.433Z,8.20
2017-12-06T15:56:30.704Z,8.20
2017-12-06T15:59:09.813Z,8.20
2017-12-06T16:01:53.237Z,8.20
2017-12-06T16:04:32.774Z,8.20
2017-12-06T16:07:20.497Z,8.20
2017-12-06T16:10:01.650Z,8.20
2017-12-06T16:12:45.266Z,8.20
2017-12-06T16:15:29.504Z,8.20
2017-12-06T16:18:10.546Z,8.10
2017-12-06T16:20:49.410Z,8.10
2017-12-06T16:23:28.290Z,8.10
2017-12-06T16:26:08.855Z,8.10
2017-12-06T16:28:48.376Z,8.10
2017-12-06T16:31:23.515Z,8.10
2017-12-06T16:34:03.105Z,8.10
2017-12-06T16:39:31.999Z,8.10
2017-12-06T16:45:14.702Z,8.20
2017-12-06T16:47:57.613Z,8.10
2017-12-06T16:50:40.456Z,8.10
2017-12-06T16:53:34.138Z,8.10
2017-12-06T16:56:16.036Z,8.10
2017-12-06T16:59:04.618Z,8.10
2017-12-06T17:04:33.118Z,8.10
2017-12-06T17:07:10.826Z,8.10
2017-12-06T17:09:52.346Z,8.10
2017-12-06T17:12:36.092Z,8.10
2017-12-06T17:15:18.886Z,8.10
2017-12-06T17:18:03.949Z,8.10
2017-12-06T17:20:45.446Z,8.00
2017-12-06T17:29:08.990Z,8.00
2017-12-06T17:31:56.735Z,8.00
2017-12-06T17:34:39.950Z,8.00
2017-12-06T17:37:22.377Z,8.00
2017-12-06T17:40:05.827Z,8.00
2017-12-06T17:42:46.215Z,8.00
2017-12-06T17:45:27.500Z,8.00
2017-12-06T17:48:12.024Z,8.00
2017-12-06T17:53:38.727Z,8.00
2017-12-06T17:56:20.763Z,8.00
2017-12-06T17:59:03.648Z,8.00
2017-12-06T18:05:00.332Z,8.00
2017-12-06T18:07:44.429Z,7.90
2017-12-06T18:10:33.961Z,7.90
2017-12-06T18:18:00.032Z,8.00
2017-12-06T18:20:42.169Z,8.00
2017-12-06T18:23:28.723Z,7.90
2017-12-06T18:26:08.851Z,7.90
2017-12-06T18:28:47.567Z,8.00
2017-12-06T18:31:21.954Z,7.90
2017-12-06T18:34:02.750Z,7.90
2017-12-06T18:39:28.812Z,7.90
2017-12-06T18:42:12.499Z,8.00
2017-12-06T18:44:52.757Z,8.00
2017-12-06T18:47:38.395Z,8.00
2017-12-06T18:50:38.330Z,8.00
2017-12-06T18:53:13.199Z,7.90
2017-12-06T18:55:56.804Z,7.90
2017-12-06T18:58:42.318Z,7.90
2017-12-06T19:01:28.533Z,8.00
2017-12-06T19:04:09.587Z,7.90
2017-12-06T19:09:36.644Z,7.90
2017-12-06T19:12:20.864Z,7.90
2017-12-06T19:17:48.658Z,7.80
2017-12-06T19:20:27.343Z,7.80
2017-12-06T19:23:10.418Z,7.90
2017-12-06T19:25:52.822Z,7.90
2017-12-06T19:28:34.209Z,7.80
